Time;durP1;ratioP1;P1;durP2;ratioP2;P2;SDS_P1;SDS_P2;PMS_P1;PMS_P2;Temp;Humidity;BMP_temperature;BMP_pressure;BME280_temperature;BME280_humidity;BME280_pressure;Samples;Min_cycle;Max_cycle;Signal;HPM_P1;HPM_P2
2022/05/13 00:01:42;;;;;;;3.07;2.77;;;14.50;99.90;;;;;;4200249;28;20256;-68
2022/05/13 00:03:42;;;;;;;4.07;2.90;;;14.50;99.90;;;;;;4199597;28;20175;-68
2022/05/13 00:05:43;;;;;;;3.80;2.87;;;14.50;99.90;;;;;;4199957;28;20553;-68
2022/05/13 00:07:43;;;;;;;3.23;2.60;;;14.50;99.90;;;;;;4199976;28;20203;-68
2022/05/13 00:10:01;;;;;;;4.47;3.17;;;14.50;99.90;;;;;;4200314;28;20255;-68
2022/05/13 00:12:01;;;;;;;3.97;2.83;;;14.50;99.90;;;;;;4199207;28;20261;-67
2022/05/13 00:14:03;;;;;;;3.87;2.97;;;14.50;99.90;;;;;;4200063;28;20180;-68
2022/05/13 00:16:05;;;;;;;4.43;2.63;;;14.40;99.90;;;;;;4199207;28;20187;-67
2022/05/13 00:18:07;;;;;;;3.60;3.03;;;14.40;99.90;;;;;;4198823;28;20191;-68
2022/05/13 00:20:09;;;;;;;3.40;2.80;;;14.50;99.90;;;;;;4199817;28;20176;-68
2022/05/13 00:22:10;;;;;;;4.33;2.90;;;14.50;99.90;;;;;;4200077;28;20551;-67
2022/05/13 00:24:10;;;;;;;3.93;3.23;;;14.50;99.90;;;;;;4200262;28;20183;-68
2022/05/13 00:26:11;;;;;;;3.27;2.93;;;14.50;99.90;;;;;;4199018;28;20198;-68
2022/05/13 00:28:13;;;;;;;3.27;2.60;;;14.50;99.90;;;;;;4198453;28;20250;-69
2022/05/13 00:30:15;;;;;;;3.43;2.97;;;14.50;99.90;;;;;;4199729;28;20517;-68
2022/05/13 00:32:17;;;;;;;3.37;3.07;;;14.60;99.90;;;;;;4200044;28;20178;-68
2022/05/13 00:34:18;;;;;;;3.00;2.70;;;14.50;99.90;;;;;;4199874;28;20237;-68
2022/05/13 00:36:19;;;;;;;4.10;3.00;;;14.50;99.90;;;;;;4199001;28;20187;-68
2022/05/13 00:38:20;;;;;;;3.53;2.97;;;14.50;99.90;;;;;;4199106;28;20183;-68
2022/05/13 00:40:22;;;;;;;3.07;2.83;;;14.50;99.90;;;;;;4199712;28;20203;-68
2022/05/13 00:42:23;;;;;;;4.23;3.27;;;14.50;99.90;;;;;;4199522;28;20812;-68
2022/05/13 00:44:23;;;;;;;3.37;2.93;;;14.40;99.90;;;;;;4199762;28;20191;-68
2022/05/13 00:46:26;;;;;;;3.60;3.30;;;14.40;99.90;;;;;;4198969;28;20642;-68
2022/05/13 00:48:26;;;;;;;3.83;3.30;;;14.50;99.90;;;;;;4199701;28;20176;-68
2022/05/13 00:50:32;;;;;;;4.13;3.43;;;14.40;99.90;;;;;;4198901;28;20207;-68
2022/05/13 00:52:33;;;;;;;4.03;3.10;;;14.40;99.90;;;;;;4199556;28;20230;-67
2022/05/13 00:54:35;;;;;;;4.17;3.37;;;14.50;99.90;;;;;;4199427;28;20171;-67
2022/05/13 00:56:36;;;;;;;6.23;3.43;;;14.40;99.90;;;;;;4198953;28;20194;-68
2022/05/13 00:58:40;;;;;;;3.60;3.30;;;14.50;99.90;;;;;;4199377;28;20190;-69
2022/05/13 01:00:41;;;;;;;3.10;2.60;;;14.60;99.90;;;;;;4198829;28;20192;-68
2022/05/13 01:02:44;;;;;;;2.83;2.60;;;14.60;99.90;;;;;;4199115;28;20193;-68
2022/05/13 01:04:45;;;;;;;3.00;2.70;;;14.60;99.90;;;;;;4198892;28;20180;-67
2022/05/13 01:06:52;;;;;;;3.80;2.87;;;14.70;99.90;;;;;;4198522;28;20203;-67
2022/05/13 01:08:52;;;;;;;3.97;2.90;;;14.70;99.90;;;;;;4198936;28;20171;-67
2022/05/13 01:10:55;;;;;;;3.33;3.00;;;14.70;99.90;;;;;;4198851;28;20192;-67
2022/05/13 01:12:59;;;;;;;3.50;2.77;;;14.70;99.90;;;;;;4198996;28;20183;-67
2022/05/13 01:15:07;;;;;;;3.10;2.80;;;14.70;99.90;;;;;;4198964;28;20178;-67
2022/05/13 01:19:52;;;;;;;3.47;2.63;;;14.70;99.90;;;;;;4199053;28;20771;-68
2022/05/13 01:21:52;;;;;;;3.33;3.03;;;14.60;99.90;;;;;;4199014;28;20215;-67
2022/05/13 01:23:53;;;;;;;7.53;2.77;;;14.70;99.90;;;;;;4198558;28;20654;-67
2022/05/13 01:25:56;;;;;;;3.53;2.70;;;14.60;99.90;;;;;;4198174;28;20186;-68
2022/05/13 01:28:04;;;;;;;3.07;2.70;;;14.70;99.90;;;;;;4198660;28;20591;-67
2022/05/13 01:30:05;;;;;;;3.23;2.93;;;14.80;99.90;;;;;;4199021;28;20178;-67
2022/05/13 01:32:06;;;;;;;2.90;2.53;;;14.80;99.90;;;;;;4198895;28;20180;-67
2022/05/13 01:34:10;;;;;;;2.93;2.63;;;14.80;99.90;;;;;;4198844;28;20187;-67
2022/05/13 01:36:12;;;;;;;2.90;2.47;;;14.80;99.90;;;;;;4194986;28;20919;-67
2022/05/13 01:38:15;;;;;;;4.50;2.90;;;14.90;99.90;;;;;;4196358;28;20218;-68
2022/05/13 01:40:16;;;;;;;2.93;2.53;;;14.90;99.90;;;;;;4196495;28;20207;-68
2022/05/13 01:42:16;;;;;;;3.73;2.80;;;14.80;99.90;;;;;;4196396;28;20180;-68
2022/05/13 01:44:17;;;;;;;3.53;2.50;;;14.70;99.90;;;;;;4196444;28;20200;-68
2022/05/13 01:46:20;;;;;;;2.63;2.43;;;14.70;99.90;;;;;;4195682;28;20176;-68
2022/05/13 01:48:21;;;;;;;4.23;2.83;;;14.70;99.90;;;;;;4196335;28;20884;-68
2022/05/13 01:50:23;;;;;;;3.53;2.83;;;14.70;99.90;;;;;;4196148;28;20674;-68
2022/05/13 01:52:24;;;;;;;4.70;3.13;;;14.60;99.90;;;;;;4196243;28;20179;-68
2022/05/13 01:54:24;;;;;;;3.37;3.07;;;14.60;99.90;;;;;;4196092;28;20625;-68
2022/05/13 01:56:25;;;;;;;6.33;2.83;;;14.70;99.90;;;;;;4195491;28;20183;-68
2022/05/13 01:58:26;;;;;;;3.00;2.70;;;14.70;99.90;;;;;;4196017;28;20210;-68
2022/05/13 02:00:27;;;;;;;4.17;3.40;;;14.70;99.90;;;;;;4195992;28;20195;-68
2022/05/13 02:02:28;;;;;;;3.67;2.73;;;14.70;99.90;;;;;;4196163;28;20171;-68
2022/05/13 02:04:28;;;;;;;3.83;3.00;;;14.80;99.90;;;;;;4195928;28;20692;-68
2022/05/13 02:06:29;;;;;;;3.63;2.87;;;14.80;99.90;;;;;;4195155;28;20175;-68
2022/05/13 02:08:31;;;;;;;3.23;2.90;;;14.70;99.90;;;;;;4195929;28;20171;-68
2022/05/13 02:10:31;;;;;;;5.37;3.63;;;14.60;99.90;;;;;;4195893;28;20252;-68
2022/05/13 02:12:32;;;;;;;4.03;3.40;;;14.50;99.90;;;;;;4189127;28;20638;-68
2022/05/13 02:14:32;;;;;;;4.10;3.07;;;14.50;99.90;;;;;;4195215;28;20183;-68
2022/05/13 02:16:33;;;;;;;3.70;3.30;;;14.50;99.90;;;;;;4194987;28;20175;-68
2022/05/13 02:18:34;;;;;;;6.70;3.40;;;14.50;99.90;;;;;;4195706;28;20222;-68
2022/05/13 02:20:36;;;;;;;4.47;3.30;;;14.50;99.90;;;;;;4195726;28;20763;-68
2022/05/13 02:22:36;;;;;;;4.67;3.57;;;14.50;99.90;;;;;;4195659;28;20201;-67
2022/05/13 02:24:37;;;;;;;5.17;3.80;;;14.40;99.90;;;;;;4195663;28;20708;-68
2022/05/13 02:26:38;;;;;;;5.83;3.83;;;14.40;99.90;;;;;;4194817;28;20286;-67
2022/05/13 02:28:38;;;;;;;4.77;3.70;;;14.40;99.90;;;;;;4194296;28;20279;-67
2022/05/13 02:30:39;;;;;;;4.43;3.30;;;14.30;99.90;;;;;;4195463;28;20204;-68
2022/05/13 02:32:40;;;;;;;6.23;3.40;;;14.30;99.90;;;;;;4195703;28;20760;-67
2022/05/13 02:34:40;;;;;;;4.77;3.40;;;14.30;99.90;;;;;;4195525;28;20187;-67
2022/05/13 02:36:41;;;;;;;5.23;3.40;;;14.30;99.90;;;;;;4195019;28;20195;-67
2022/05/13 02:38:41;;;;;;;4.17;3.27;;;14.30;99.90;;;;;;4195381;28;20206;-67
2022/05/13 02:43:02;;;;;;;4.03;3.63;;;14.20;99.90;;;;;;4195337;28;20773;-68
2022/05/13 02:45:04;;;;;;;6.50;3.40;;;14.20;99.90;;;;;;4195138;28;20196;-67
2022/05/13 02:47:05;;;;;;;4.27;3.83;;;14.20;99.90;;;;;;4194457;28;20219;-68
2022/05/13 02:49:05;;;;;;;3.70;3.27;;;14.20;99.90;;;;;;4195251;28;20646;-67
2022/05/13 02:51:07;;;;;;;5.03;3.90;;;14.20;99.90;;;;;;4195410;28;20208;-67
2022/05/13 02:53:07;;;;;;;4.60;3.80;;;14.20;99.90;;;;;;4195085;28;20195;-67
2022/05/13 02:55:08;;;;;;;5.73;3.83;;;14.20;99.90;;;;;;4194930;28;20655;-68
2022/05/13 02:57:09;;;;;;;4.10;3.43;;;14.10;99.90;;;;;;4194684;28;20191;-67
2022/05/13 02:59:10;;;;;;;6.03;4.30;;;14.10;99.90;;;;;;4195110;28;20187;-67
2022/05/13 03:01:12;;;;;;;4.50;3.63;;;14.00;99.90;;;;;;4195294;28;20207;-68
2022/05/13 03:03:14;;;;;;;4.33;3.77;;;14.10;99.90;;;;;;4195247;28;20228;-66
2022/05/13 03:05:14;;;;;;;6.17;3.87;;;14.10;99.90;;;;;;4194794;28;20183;-68
2022/05/13 03:07:15;;;;;;;6.70;4.10;;;14.10;99.90;;;;;;4194542;28;20226;-68
2022/05/13 03:09:16;;;;;;;4.90;3.73;;;14.10;99.90;;;;;;4195065;28;20659;-68
2022/05/13 03:11:17;;;;;;;5.17;3.73;;;14.20;99.90;;;;;;4195191;28;20195;-68
2022/05/13 03:13:19;;;;;;;4.73;4.20;;;14.20;99.90;;;;;;4195164;28;20591;-68
2022/05/13 03:15:20;;;;;;;6.10;4.20;;;14.20;99.90;;;;;;4194563;28;20654;-68
2022/05/13 03:17:21;;;;;;;4.83;4.33;;;14.20;99.90;;;;;;4195285;28;20312;-69
2022/05/13 03:19:21;;;;;;;4.40;4.00;;;14.10;99.90;;;;;;4195241;28;20805;-67
2022/05/13 03:21:23;;;;;;;4.97;4.20;;;14.00;99.90;;;;;;4195099;28;20219;-69
2022/05/13 03:23:24;;;;;;;4.63;4.10;;;14.10;99.90;;;;;;4195080;28;20186;-68
2022/05/13 03:25:24;;;;;;;5.43;4.47;;;14.10;99.90;;;;;;4194233;28;20207;-68
2022/05/13 03:27:26;;;;;;;5.93;4.30;;;14.20;99.90;;;;;;4194855;28;20211;-68
2022/05/13 03:29:27;;;;;;;6.10;4.83;;;14.20;99.90;;;;;;4194846;28;20176;-68
2022/05/13 03:31:28;;;;;;;6.97;4.77;;;14.30;99.90;;;;;;4194934;28;20196;-68
2022/05/13 03:33:28;;;;;;;5.87;4.63;;;14.20;99.90;;;;;;4195250;28;20223;-68
2022/05/13 03:35:29;;;;;;;4.90;4.07;;;14.30;99.90;;;;;;4194429;28;20237;-68
2022/05/13 03:37:29;;;;;;;5.33;4.00;;;14.30;99.90;;;;;;4195956;28;20183;-69
2022/05/13 03:39:30;;;;;;;5.00;4.50;;;14.30;99.90;;;;;;4194993;28;20184;-68
2022/05/13 03:41:30;;;;;;;4.53;4.10;;;14.30;99.90;;;;;;4195287;28;20210;-68
2022/05/13 03:43:31;;;;;;;5.17;4.40;;;14.30;99.90;;;;;;4195519;28;20179;-68
2022/05/13 03:45:36;;;;;;;5.90;4.80;;;14.20;99.90;;;;;;4194407;28;20184;-68
2022/05/13 03:47:37;;;;;;;6.43;5.43;;;14.10;99.90;;;;;;4195281;28;20260;-68
2022/05/13 03:49:37;;;;;;;6.67;4.70;;;14.10;99.90;;;;;;4195067;28;20647;-68
2022/05/13 03:51:38;;;;;;;6.37;4.90;;;14.10;99.90;;;;;;4195281;28;20191;-68
2022/05/13 03:53:39;;;;;;;8.20;5.03;;;14.10;99.90;;;;;;4195026;28;20179;-68
2022/05/13 03:55:39;;;;;;;6.37;4.33;;;14.10;99.90;;;;;;4194471;28;20252;-68
2022/05/13 03:57:40;;;;;;;5.50;4.77;;;14.20;99.90;;;;;;4194896;28;20176;-68
2022/05/13 03:59:41;;;;;;;6.07;4.67;;;14.30;99.90;;;;;;4194940;28;20253;-68
2022/05/13 04:01:41;;;;;;;6.27;4.70;;;14.40;99.90;;;;;;4196392;28;20237;-67
2022/05/13 04:03:42;;;;;;;5.93;4.60;;;14.30;99.90;;;;;;4194786;28;20643;-67
2022/05/13 04:10:21;;;;;;;6.93;4.37;;;14.50;99.90;;;;;;4195145;28;20214;-67
2022/05/13 04:17:06;;;;;;;7.67;5.00;;;14.50;99.90;;;;;;4194348;28;20543;-67
2022/05/13 04:19:06;;;;;;;8.70;5.43;;;14.60;99.90;;;;;;4194306;28;20176;-67
2022/05/13 04:21:13;;;;;;;5.60;4.40;;;14.60;99.90;;;;;;4194481;28;20223;-66
2022/05/13 04:23:14;;;;;;;7.33;5.30;;;14.70;99.90;;;;;;4194819;28;20610;-68
2022/05/13 04:25:15;;;;;;;8.70;5.47;;;14.80;99.90;;;;;;4196250;28;20241;-68
2022/05/13 04:27:15;;;;;;;5.87;4.90;;;14.70;99.90;;;;;;4195110;28;20818;-68
2022/05/13 04:29:16;;;;;;;7.23;5.10;;;14.80;99.90;;;;;;4196654;28;20215;-68
2022/05/13 04:31:20;;;;;;;7.67;5.10;;;14.80;99.90;;;;;;4196309;28;20292;-68
2022/05/13 04:33:21;;;;;;;6.07;5.23;;;14.90;99.90;;;;;;4196722;28;20188;-68
2022/05/13 04:35:21;;;;;;;8.97;5.23;;;14.90;99.90;;;;;;4211467;28;20247;-69
2022/05/13 04:37:22;;;;;;;6.67;5.37;;;15.00;99.90;;;;;;4199237;28;20192;-66
2022/05/13 04:39:22;;;;;;;5.00;4.30;;;15.00;99.90;;;;;;4198318;28;20195;-68
2022/05/13 04:43:44;;;;;;;8.73;5.50;;;15.00;99.90;;;;;;4199840;28;20206;-69
2022/05/13 04:45:44;;;;;;;7.53;4.97;;;15.00;99.90;;;;;;4199080;28;20191;-68
2022/05/13 04:50:04;;;;;;;8.47;6.07;;;15.00;99.90;;;;;;4199823;28;20170;-68
2022/05/13 04:52:05;;;;;;;7.73;5.87;;;15.00;99.90;;;;;;4199846;28;20251;-68
2022/05/13 04:54:06;;;;;;;9.07;6.20;;;14.90;99.90;;;;;;4200007;28;20180;-68
2022/05/13 04:56:08;;;;;;;8.80;6.23;;;14.90;99.90;;;;;;4199347;28;20175;-68
2022/05/13 04:58:08;;;;;;;7.70;6.17;;;14.90;99.90;;;;;;4199771;28;20203;-68
2022/05/13 05:00:09;;;;;;;9.17;6.70;;;14.90;99.90;;;;;;4199650;28;20178;-69
2022/05/13 05:02:10;;;;;;;9.97;6.47;;;14.90;99.90;;;;;;4199503;28;20171;-67
2022/05/13 05:04:11;;;;;;;8.93;6.53;;;14.80;99.90;;;;;;4199616;28;20183;-68
2022/05/13 05:06:13;;;;;;;11.67;7.03;;;14.70;99.90;;;;;;4198813;28;20233;-68
2022/05/13 05:08:15;;;;;;;14.63;6.53;;;14.70;99.90;;;;;;4199682;28;20214;-68
2022/05/13 05:10:18;;;;;;;6.83;5.30;;;14.80;99.90;;;;;;4199338;28;20202;-68
2022/05/13 05:12:18;;;;;;;8.87;6.33;;;14.80;99.90;;;;;;4199348;28;20175;-68
2022/05/13 05:14:19;;;;;;;10.70;6.77;;;14.70;99.90;;;;;;4199339;28;20182;-68
2022/05/13 05:16:22;;;;;;;9.60;7.20;;;14.80;99.90;;;;;;4198881;28;20179;-68
2022/05/13 05:18:23;;;;;;;10.20;7.33;;;14.70;99.90;;;;;;4199343;28;20377;-68
2022/05/13 05:20:23;;;;;;;11.53;6.80;;;14.60;99.90;;;;;;4199212;28;20219;-68
2022/05/13 05:22:24;;;;;;;14.77;6.83;;;14.50;99.90;;;;;;4197536;28;20218;-69
2022/05/13 05:24:25;;;;;;;10.83;7.47;;;14.60;99.90;;;;;;4196441;28;20845;-69
2022/05/13 05:26:25;;;;;;;17.90;8.00;;;14.60;99.90;;;;;;4195674;28;20597;-69
2022/05/13 05:28:27;;;;;;;10.47;7.47;;;14.70;99.90;;;;;;4196478;28;20188;-69
2022/05/13 05:30:27;;;;;;;11.33;7.47;;;14.60;99.90;;;;;;4196259;28;20199;-69
2022/05/13 05:32:28;;;;;;;11.23;7.47;;;14.70;99.90;;;;;;4196408;28;20251;-69
2022/05/13 05:34:29;;;;;;;9.93;7.27;;;14.60;99.90;;;;;;4196339;28;20655;-68
2022/05/13 05:36:29;;;;;;;10.87;7.90;;;14.60;99.90;;;;;;4195741;28;20180;-69
2022/05/13 05:38:30;;;;;;;12.27;7.17;;;14.60;99.90;;;;;;4196447;28;20176;-68
2022/05/13 05:40:31;;;;;;;11.13;7.10;;;14.60;99.90;;;;;;4196199;28;20245;-69
2022/05/13 05:42:32;;;;;;;9.97;7.77;;;14.70;99.90;;;;;;4196204;28;20179;-69
2022/05/13 05:44:33;;;;;;;14.97;8.87;;;14.60;99.90;;;;;;4196224;28;20552;-69
2022/05/13 05:46:33;;;;;;;15.00;8.80;;;14.60;99.90;;;;;;4195533;28;20184;-69
2022/05/13 05:48:34;;;;;;;17.00;10.10;;;14.60;99.90;;;;;;4195941;28;20180;-69
2022/05/13 05:50:34;;;;;;;18.03;10.80;;;14.80;99.90;;;;;;4196139;28;20206;-69
2022/05/13 05:52:35;;;;;;;12.83;8.97;;;14.80;99.90;;;;;;4196136;28;20900;-69
2022/05/13 05:59:14;;;;;;;11.03;7.63;;;15.00;99.90;;;;;;4196118;28;20270;-69
2022/05/13 06:01:14;;;;;;;11.77;7.77;;;14.90;99.90;;;;;;4194802;28;20203;-69
2022/05/13 06:03:15;;;;;;;12.87;7.97;;;14.90;99.90;;;;;;4195878;28;20232;-69
2022/05/13 06:05:16;;;;;;;12.23;7.60;;;15.00;99.90;;;;;;4195844;28;20659;-69
2022/05/13 06:07:17;;;;;;;12.07;8.40;;;15.00;99.90;;;;;;4195347;28;20212;-69
2022/05/13 06:09:17;;;;;;;10.67;7.63;;;14.80;99.90;;;;;;4195872;28;20218;-69
2022/05/13 06:11:18;;;;;;;8.57;6.87;;;14.70;99.90;;;;;;4195976;28;20195;-69
2022/05/13 06:13:18;;;;;;;10.23;7.30;;;14.80;99.90;;;;;;4195838;28;20233;-68
2022/05/13 06:15:20;;;;;;;10.67;8.23;;;14.80;99.90;;;;;;4195649;28;20179;-68
2022/05/13 06:17:21;;;;;;;12.67;7.73;;;14.90;99.90;;;;;;4194732;28;20176;-68
2022/05/13 06:19:21;;;;;;;15.40;8.13;;;14.90;99.90;;;;;;4194155;28;20844;-68
2022/05/13 06:21:22;;;;;;;10.47;8.23;;;14.90;99.90;;;;;;4195102;28;20284;-68
2022/05/13 06:23:22;;;;;;;7.50;6.40;;;15.00;99.90;;;;;;4195396;28;20681;-68
2022/05/13 06:25:23;;;;;;;11.00;7.67;;;15.10;99.90;;;;;;4195300;28;20179;-68
2022/05/13 06:27:24;;;;;;;10.07;7.03;;;15.30;99.90;;;;;;4195445;28;20199;-68
2022/05/13 06:29:26;;;;;;;12.63;8.00;;;15.30;99.90;;;;;;4195480;28;20183;-68
2022/05/13 06:31:26;;;;;;;9.50;6.70;;;15.30;99.90;;;;;;4195613;28;20733;-68
2022/05/13 06:33:27;;;;;;;8.67;6.73;;;15.50;99.90;;;;;;4195211;28;20182;-68
2022/05/13 06:35:30;;;;;;;10.70;7.20;;;15.50;99.90;;;;;;4194830;28;20172;-68
2022/05/13 06:37:31;;;;;;;9.23;7.17;;;15.60;99.90;;;;;;4195323;28;20195;-68
2022/05/13 06:39:31;;;;;;;9.23;7.33;;;15.50;99.90;;;;;;4195335;28;20183;-69
2022/05/13 06:41:37;;;;;;;8.63;7.17;;;15.50;99.90;;;;;;4195466;28;20254;-68
2022/05/13 06:43:37;;;;;;;9.00;6.67;;;15.50;99.90;;;;;;4195033;28;20178;-68
2022/05/13 06:45:38;;;;;;;7.90;6.50;;;15.60;99.90;;;;;;4194761;28;20263;-68
2022/05/13 06:47:38;;;;;;;12.17;7.37;;;15.50;99.90;;;;;;4195179;28;20227;-68
2022/05/13 06:49:39;;;;;;;15.23;8.13;;;15.50;99.90;;;;;;4195321;28;20171;-68
2022/05/13 06:51:41;;;;;;;9.03;7.50;;;15.60;99.90;;;;;;4195112;28;20740;-68
2022/05/13 06:53:41;;;;;;;8.53;6.63;;;15.70;99.90;;;;;;4195315;28;20677;-68
2022/05/13 06:55:44;;;;;;;8.50;5.70;;;15.70;99.90;;;;;;4194651;28;20188;-68
2022/05/13 06:57:44;;;;;;;7.60;6.17;;;15.70;99.90;;;;;;4195356;28;20180;-68
2022/05/13 06:59:45;;;;;;;9.30;6.07;;;15.90;99.90;;;;;;4194881;28;20185;-68
2022/05/13 07:01:45;;;;;;;7.40;6.20;;;16.00;99.90;;;;;;4195214;28;20780;-68
2022/05/13 07:03:46;;;;;;;7.60;6.17;;;15.80;99.90;;;;;;4195225;28;20270;-69
2022/05/13 07:05:47;;;;;;;9.00;6.80;;;15.70;99.90;;;;;;4194526;28;20194;-69
2022/05/13 07:07:48;;;;;;;11.43;7.63;;;15.70;99.90;;;;;;4195072;28;20211;-68
2022/05/13 07:09:48;;;;;;;9.10;7.00;;;15.80;99.90;;;;;;4195386;28;20549;-69
2022/05/13 07:11:49;;;;;;;7.70;6.90;;;15.80;99.90;;;;;;4195180;28;20200;-69
2022/05/13 07:13:49;;;;;;;9.43;6.67;;;15.60;99.90;;;;;;4195205;28;20543;-68
2022/05/13 07:15:50;;;;;;;8.27;6.50;;;15.60;99.90;;;;;;4194394;28;20180;-68
2022/05/13 07:17:51;;;;;;;8.97;6.83;;;15.50;99.90;;;;;;4195027;28;20191;-69
2022/05/13 07:19:51;;;;;;;9.73;6.53;;;15.40;99.90;;;;;;4194855;28;20176;-69
2022/05/13 07:21:52;;;;;;;8.70;6.37;;;15.30;99.90;;;;;;4195079;28;20571;-69
2022/05/13 07:23:52;;;;;;;8.83;7.07;;;15.30;99.90;;;;;;4194821;28;20183;-69
2022/05/13 07:25:53;;;;;;;7.33;6.17;;;15.20;99.90;;;;;;4194330;28;20183;-72
2022/05/13 07:27:54;;;;;;;7.70;5.60;;;15.00;99.90;;;;;;4194708;28;20210;-69
2022/05/13 07:29:55;;;;;;;7.80;5.50;;;14.90;99.90;;;;;;4194781;28;20674;-69
2022/05/13 07:31:55;;;;;;;7.23;5.70;;;14.70;99.90;;;;;;4194828;28;20222;-69
2022/05/13 07:33:56;;;;;;;5.73;3.87;;;14.40;99.90;;;;;;4194709;28;20186;-69
2022/05/13 07:35:57;;;;;;;5.33;4.47;;;14.20;99.90;;;;;;4193946;28;20187;-69
2022/05/13 07:37:58;;;;;;;3.73;3.07;;;14.00;99.90;;;;;;4194948;28;20276;-69
2022/05/13 07:42:18;;;;;;;4.97;3.07;;;13.70;99.90;;;;;;4194678;28;20225;-70
2022/05/13 07:44:19;;;;;;;2.60;2.10;;;13.60;99.90;;;;;;4194573;28;20178;-69
2022/05/13 07:46:20;;;;;;;3.57;2.80;;;13.70;99.90;;;;;;4193734;28;20176;-69
2022/05/13 07:48:20;;;;;;;2.97;2.10;;;13.60;99.90;;;;;;4194512;28;20211;-69
2022/05/13 07:50:21;;;;;;;4.80;2.80;;;13.50;99.90;;;;;;4194591;28;20202;-69
2022/05/13 07:52:24;;;;;;;4.70;2.30;;;13.40;99.90;;;;;;4194494;28;20176;-69
2022/05/13 07:54:24;;;;;;;2.37;1.70;;;13.40;99.90;;;;;;4194722;28;20171;-69
2022/05/13 07:56:25;;;;;;;2.33;2.00;;;13.10;99.90;;;;;;4193844;28;20180;-69
2022/05/13 07:58:25;;;;;;;2.47;2.27;;;13.00;99.90;;;;;;4194559;28;20209;-69
2022/05/13 08:00:32;;;;;;;4.03;2.37;;;12.90;99.90;;;;;;4194570;28;20199;-69
2022/05/13 08:02:33;;;;;;;4.03;2.90;;;12.70;99.90;;;;;;4194598;28;20208;-69
2022/05/13 08:04:33;;;;;;;4.10;2.90;;;12.70;99.90;;;;;;4194682;28;20187;-69
2022/05/13 08:06:34;;;;;;;5.90;3.10;;;12.80;99.90;;;;;;4193862;28;20191;-69
2022/05/13 08:08:40;;;;;;;11.10;3.40;;;12.80;99.90;;;;;;4194451;28;20172;-69
2022/05/13 08:10:45;;;;;;;5.30;3.33;;;12.80;99.90;;;;;;4194535;28;20615;-69
2022/05/13 08:12:45;;;;;;;5.63;3.60;;;13.00;99.90;;;;;;4197493;28;20186;-69
2022/05/13 08:14:46;;;;;;;6.80;3.47;;;13.10;99.90;;;;;;4197653;28;20187;-69
2022/05/13 08:16:46;;;;;;;8.83;3.53;;;13.20;99.90;;;;;;4197032;28;20241;-69
2022/05/13 08:18:48;;;;;;;4.03;2.77;;;13.30;99.90;;;;;;4197558;28;20183;-69
2022/05/13 08:20:49;;;;;;;4.80;3.50;;;13.30;99.90;;;;;;4197737;28;20222;-68
2022/05/13 08:22:50;;;;;;;3.40;2.60;;;13.30;99.90;;;;;;4197656;28;20323;-69
2022/05/13 08:24:50;;;;;;;4.37;3.30;;;13.20;99.90;;;;;;4197530;28;20211;-70
2022/05/13 08:26:51;;;;;;;4.87;3.10;;;13.20;99.90;;;;;;4196842;28;20254;-69
2022/05/13 08:28:52;;;;;;;5.37;3.03;;;13.40;99.90;;;;;;4195966;28;20638;-69
2022/05/13 08:30:53;;;;;;;6.27;3.43;;;13.40;99.90;;;;;;4197590;28;20204;-70
2022/05/13 08:32:53;;;;;;;7.43;3.60;;;13.70;99.90;;;;;;4197576;28;20205;-69
2022/05/13 08:34:54;;;;;;;3.73;3.23;;;14.00;99.90;;;;;;4197210;28;20192;-69
2022/05/13 08:36:55;;;;;;;10.23;4.33;;;14.10;99.90;;;;;;4196948;28;20192;-69
2022/05/13 08:38:55;;;;;;;9.27;3.83;;;14.30;99.90;;;;;;4197374;28;20235;-70
2022/05/13 08:41:08;;;;;;;5.20;2.93;;;14.70;99.90;;;;;;4197353;28;20641;-70
2022/05/13 08:43:15;;;;;;;4.77;3.50;;;14.80;99.90;;;;;;4196454;28;20180;-69
2022/05/13 08:45:18;;;;;;;7.27;3.43;;;15.00;99.90;;;;;;4196911;28;20183;-70
2022/05/13 08:47:44;;;;;;;6.63;2.80;;;15.20;99.90;;;;;;4196776;28;20208;-69
2022/05/13 08:49:52;;;;;;;16.40;3.97;;;15.10;99.40;;;;;;4197321;28;20175;-68
2022/05/13 08:54:34;;;;;;;9.17;3.27;;;15.10;99.50;;;;;;4197275;28;20190;-68
2022/05/13 08:56:35;;;;;;;5.87;3.37;;;15.00;99.70;;;;;;4196367;28;20175;-68
2022/05/13 08:59:07;;;;;;;6.87;3.63;;;14.80;99.30;;;;;;4197240;28;20241;-68
2022/05/13 09:01:13;;;;;;;9.90;3.47;;;14.90;99.50;;;;;;4191139;28;20310;-68
2022/05/13 09:03:34;;;;;;;9.03;3.70;;;15.20;98.20;;;;;;4197130;28;20192;-68
2022/05/13 09:05:46;;;;;;;5.90;3.30;;;15.00;97.30;;;;;;4196374;28;20275;-68
2022/05/13 09:07:50;;;;;;;11.07;3.40;;;15.10;99.60;;;;;;4196585;28;20268;-68
2022/05/13 09:09:55;;;;;;;7.20;3.37;;;15.30;99.00;;;;;;4196814;28;20638;-68
2022/05/13 09:12:09;;;;;;;4.70;2.77;;;15.60;97.20;;;;;;4196609;28;20203;-68
2022/05/13 09:14:37;;;;;;;6.67;2.40;;;15.90;96.00;;;;;;4196647;28;20180;-68
2022/05/13 09:16:40;;;;;;;8.93;2.70;;;15.80;95.90;;;;;;4196285;28;20164;-69
2022/05/13 09:19:01;;;;;;;5.00;2.93;;;15.80;95.40;;;;;;4196728;28;20210;-68
2022/05/13 09:21:05;;;;;;;8.13;3.10;;;15.70;95.50;;;;;;4196702;28;20280;-68
2022/05/13 09:23:10;;;;;;;6.33;3.00;;;15.70;96.40;;;;;;4194701;28;20702;-68
2022/05/13 09:25:32;;;;;;;7.13;3.13;;;15.80;97.50;;;;;;4196627;28;20259;-68
2022/05/13 09:27:44;;;;;;;5.67;2.90;;;15.40;96.90;;;;;;4196777;28;20196;-68
2022/05/13 09:29:45;;;;;;;7.37;2.90;;;15.40;97.20;;;;;;4196200;28;20658;-68
2022/05/13 09:31:55;;;;;;;5.77;2.70;;;15.50;97.50;;;;;;4196557;28;20208;-68
2022/05/13 09:33:56;;;;;;;10.43;2.97;;;15.80;96.50;;;;;;4196691;28;20585;-68
2022/05/13 09:36:04;;;;;;;9.33;2.90;;;16.20;95.70;;;;;;4195751;28;20179;-68
2022/05/13 09:38:21;;;;;;;5.37;2.90;;;16.00;93.00;;;;;;4196532;28;20678;-68
2022/05/13 09:40:25;;;;;;;11.47;3.50;;;15.10;94.80;;;;;;4196240;28;20719;-68
2022/05/13 09:42:35;;;;;;;6.40;2.90;;;15.60;95.70;;;;;;4196294;28;20263;-68
2022/05/13 09:44:35;;;;;;;3.70;2.50;;;15.70;94.30;;;;;;4196463;28;20628;-68
2022/05/13 09:46:42;;;;;;;4.17;2.53;;;16.00;91.80;;;;;;4195552;28;20218;-68
2022/05/13 09:48:59;;;;;;;5.87;2.70;;;16.50;91.70;;;;;;4196436;28;20168;-68
2022/05/13 09:51:22;;;;;;;5.90;2.67;;;16.30;92.10;;;;;;4196189;28;20291;-68
2022/05/13 09:53:22;;;;;;;5.70;2.53;;;16.50;89.70;;;;;;4196352;28;20163;-68
2022/05/13 09:55:32;;;;;;;6.00;2.57;;;16.70;91.40;;;;;;4195696;28;20203;-69
2022/05/13 09:57:34;;;;;;;5.33;3.10;;;17.20;88.00;;;;;;4195950;28;20207;-68
2022/05/13 09:59:38;;;;;;;4.37;2.67;;;17.10;90.60;;;;;;4196253;28;20176;-68
2022/05/13 10:01:38;;;;;;;5.37;2.47;;;16.50;89.00;;;;;;4196001;28;20191;-68
2022/05/13 10:03:40;;;;;;;7.13;2.73;;;16.20;91.20;;;;;;4196265;28;20207;-68
2022/05/13 10:05:40;;;;;;;4.20;2.40;;;16.30;90.20;;;;;;4194259;28;20278;-69
2022/05/13 10:08:02;;;;;;;4.37;2.37;;;16.10;90.60;;;;;;4195665;28;20211;-68
2022/05/13 10:15:08;;;;;;;8.07;2.60;;;17.70;80.20;;;;;;4195779;28;20210;-68
2022/05/13 10:17:14;;;;;;;4.47;2.20;;;18.00;79.80;;;;;;4195452;28;20216;-68
2022/05/13 10:19:35;;;;;;;4.87;2.27;;;18.30;81.10;;;;;;4195747;28;20164;-68
2022/05/13 10:21:58;;;;;;;4.73;2.20;;;18.60;74.00;;;;;;4195868;28;20238;-68
2022/05/13 10:24:07;;;;;;;5.10;2.63;;;18.30;72.80;;;;;;4195598;28;20540;-68
2022/05/13 10:26:18;;;;;;;3.80;2.27;;;18.30;77.90;;;;;;4194811;28;20183;-68
2022/05/13 10:28:28;;;;;;;6.30;2.53;;;18.50;77.90;;;;;;4195511;28;20223;-68
2022/05/13 10:30:58;;;;;;;6.83;2.47;;;18.60;74.40;;;;;;4195459;28;20291;-68
2022/05/13 10:33:17;;;;;;;5.17;2.73;;;18.60;71.70;;;;;;4195504;28;20215;-68
2022/05/13 10:35:22;;;;;;;4.13;2.40;;;19.10;71.60;;;;;;4194617;28;20666;-68
2022/05/13 10:37:34;;;;;;;6.27;2.30;;;19.30;69.60;;;;;;4195518;28;20211;-68
2022/05/13 10:39:45;;;;;;;6.10;3.30;;;19.70;66.10;;;;;;4195466;28;20204;-68
2022/05/13 10:41:51;;;;;;;3.67;2.23;;;19.50;69.20;;;;;;4195340;28;20238;-68
2022/05/13 10:43:58;;;;;;;5.73;2.43;;;20.30;66.70;;;;;;4195445;28;20184;-68
2022/05/13 10:46:18;;;;;;;4.57;2.60;;;20.80;62.60;;;;;;4194780;28;20647;-68
2022/05/13 10:48:30;;;;;;;4.13;2.60;;;19.70;64.50;;;;;;4195127;28;20200;-68
2022/05/13 10:50:39;;;;;;;6.00;2.43;;;19.50;65.40;;;;;;4194709;28;20282;-68
2022/05/13 10:53:10;;;;;;;5.53;2.50;;;19.50;66.60;;;;;;4195421;28;20631;-68
2022/05/13 10:55:40;;;;;;;4.70;2.07;;;19.10;68.60;;;;;;4195063;28;20189;-68
2022/05/13 10:58:09;;;;;;;4.30;2.17;;;19.40;71.50;;;;;;4187381;28;20678;-68
2022/05/13 11:00:34;;;;;;;4.83;2.37;;;20.10;64.90;;;;;;4195196;28;20610;-68
2022/05/13 11:02:47;;;;;;;3.40;2.13;;;19.50;64.00;;;;;;4195111;28;20176;-68
2022/05/13 11:05:22;;;;;;;4.40;2.60;;;19.70;65.90;;;;;;4195386;28;20258;-68
2022/05/13 11:07:37;;;;;;;2.83;2.20;;;20.00;69.20;;;;;;4194992;28;20209;-68
2022/05/13 11:09:46;;;;;;;9.33;3.60;;;21.50;61.00;;;;;;4195421;28;20630;-68
2022/05/13 11:11:46;;;;;;;3.80;2.70;;;21.40;59.10;;;;;;4195118;28;20206;-68
2022/05/13 11:13:58;;;;;;;4.33;2.83;;;21.50;59.30;;;;;;4195157;28;20643;-68
2022/05/13 11:16:02;;;;;;;5.63;3.00;;;21.80;57.30;;;;;;4194727;28;20179;-68